Time;durP1;ratioP1;P1;durP2;ratioP2;P2;SDS_P1;SDS_P2;PMS_P1;PMS_P2;Temp;Humidity;BMP_temperature;BMP_pressure;BME280_temperature;BME280_humidity;BME280_pressure;Samples;Min_cycle;Max_cycle;Signal;HPM_P1;HPM_P2
2021/10/12 00:02:25;;;;;;;69.62;24.75;;;;;;;11.04;80.98;100866.33;1726279;81;21319;-55
2021/10/12 00:04:52;;;;;;;60.28;23.73;;;;;;;11.05;80.63;100864.06;1728346;81;21092;-59
2021/10/12 00:07:20;;;;;;;64.80;26.07;;;;;;;11.03;80.43;100859.22;1721249;81;21874;-60
2021/10/12 00:09:47;;;;;;;61.28;25.55;;;;;;;11.00;80.57;100864.69;1726622;81;21130;-61
2021/10/12 00:12:15;;;;;;;74.45;27.48;;;;;;;10.97;80.36;100870.17;1722781;81;20999;-60
2021/10/12 00:14:42;;;;;;;91.02;31.30;;;;;;;10.93;80.25;100859.11;1726781;81;21078;-60
2021/10/12 00:17:11;;;;;;;79.97;28.77;;;;;;;10.93;80.02;100849.72;1722129;81;21055;-61
2021/10/12 00:19:39;;;;;;;87.40;32.35;;;;;;;10.89;79.35;100847.63;1725175;81;21124;-61
2021/10/12 00:22:06;;;;;;;92.17;33.70;;;;;;;10.83;78.97;100846.03;1724948;81;21056;-60
2021/10/12 00:24:33;;;;;;;101.25;35.13;;;;;;;10.76;78.54;100843.16;1727679;81;21530;-60
2021/10/12 00:27:01;;;;;;;101.87;33.42;;;;;;;10.71;78.22;100834.37;1723911;81;21105;-60
2021/10/12 00:29:30;;;;;;;87.88;33.55;;;;;;;10.69;77.74;100837.13;1724121;81;21075;-55
2021/10/12 00:31:58;;;;;;;94.15;31.93;;;;;;;10.60;77.30;100832.95;1723671;81;21026;-55
2021/10/12 00:34:25;;;;;;;90.40;29.77;;;;;;;10.49;77.23;100831.07;1724697;80;21099;-54
2021/10/12 00:36:52;;;;;;;80.62;27.65;;;;;;;10.37;77.37;100831.47;1727158;81;21554;-55
2021/10/12 00:39:26;;;;;;;109.07;32.35;;;;;;;10.27;77.63;100823.70;1726803;81;21130;-56
2021/10/12 00:41:51;;;;;;;87.78;26.90;;;;;;;10.22;77.82;100828.34;1726148;81;22156;-56
2021/10/12 00:44:18;;;;;;;87.10;27.95;;;;;;;10.15;78.03;100827.66;1728200;81;21094;-57
2021/10/12 00:46:46;;;;;;;85.60;27.10;;;;;;;10.12;78.29;100816.19;1723300;81;21120;-55
2021/10/12 00:49:13;;;;;;;74.32;26.42;;;;;;;10.07;78.54;100809.63;1710668;81;21436;-54
2021/10/12 00:51:41;;;;;;;67.78;26.48;;;;;;;10.07;78.85;100811.45;1729487;81;21055;-55
2021/10/12 00:54:10;;;;;;;50.67;23.15;;;;;;;10.06;78.77;100809.66;1724802;81;21451;-55
2021/10/12 00:56:37;;;;;;;69.37;25.55;;;;;;;10.04;78.85;100815.95;1719549;81;21058;-54
2021/10/12 00:59:05;;;;;;;62.53;24.07;;;;;;;10.06;78.93;100805.64;1726496;81;21061;-54
2021/10/12 01:01:33;;;;;;;53.75;23.92;;;;;;;10.05;78.71;100799.42;1721770;81;21426;-54
2021/10/12 01:04:01;;;;;;;55.03;24.57;;;;;;;10.02;78.77;100795.52;1718414;81;20992;-55
2021/10/12 01:06:28;;;;;;;55.75;25.32;;;;;;;10.00;78.86;100795.55;1716310;81;21138;-54
2021/10/12 01:08:55;;;;;;;52.00;23.12;;;;;;;9.99;79.09;100799.16;1721291;81;21057;-54
2021/10/12 01:11:22;;;;;;;55.33;22.22;;;;;;;10.00;79.00;100800.91;1717879;81;21081;-54
2021/10/12 01:13:51;;;;;;;56.63;21.37;;;;;;;9.99;79.12;100793.80;1720128;81;21084;-54
2021/10/12 01:16:18;;;;;;;51.95;21.77;;;;;;;10.04;79.31;100805.23;1714931;81;21074;-56
2021/10/12 01:19:06;;;;;;;56.25;21.33;;;;;;;10.09;79.27;100801.55;1719010;81;21123;-54
2021/10/12 01:21:48;;;;;;;55.12;21.68;;;;;;;10.16;79.34;100800.42;1717928;81;21241;-55
2021/10/12 01:24:17;;;;;;;67.78;24.55;;;;;;;10.24;79.00;100798.36;1694999;83;21680;-55
2021/10/12 01:30:47;;;;;;;83.67;24.63;;;;;;;10.23;78.54;100791.24;1680414;85;21918;-54
2021/10/12 01:33:14;;;;;;;77.03;23.92;;;;;;;10.16;78.40;100786.55;1685544;83;21075;-55
2021/10/12 01:35:41;;;;;;;64.65;20.17;;;;;;;10.19;78.47;100794.95;1681988;83;21144;-54
2021/10/12 01:38:08;;;;;;;61.18;21.02;;;;;;;10.21;78.53;100792.24;1688808;83;21074;-54
2021/10/12 01:40:36;;;;;;;59.65;20.65;;;;;;;10.25;78.90;100793.41;1684951;82;21149;-55
2021/10/12 01:43:03;;;;;;;77.62;22.87;;;;;;;10.29;78.74;100788.83;1687743;83;21028;-55
2021/10/12 01:45:30;;;;;;;74.92;22.45;;;;;;;10.31;78.76;100785.64;1686814;83;21533;-56
2021/10/12 01:47:57;;;;;;;52.67;19.82;;;;;;;10.32;78.67;100785.59;1682420;83;21104;-55
2021/10/12 01:50:24;;;;;;;56.15;19.15;;;;;;;10.35;79.03;100789.09;1684475;83;21132;-54
2021/10/12 01:52:51;;;;;;;58.58;20.43;;;;;;;10.37;79.31;100786.77;1683638;83;21497;-54
2021/10/12 01:55:22;;;;;;;81.12;19.60;;;;;;;10.41;79.42;100780.88;1684702;83;21099;-54
2021/10/12 01:57:50;;;;;;;59.70;19.37;;;;;;;10.45;79.47;100775.82;1660181;84;21537;-59
2021/10/12 02:00:17;;;;;;;64.80;19.85;;;;;;;10.48;79.19;100778.39;1680013;85;21152;-60
2021/10/12 02:02:45;;;;;;;72.20;20.68;;;;;;;10.43;79.15;100772.31;1671166;84;21497;-59
2021/10/12 02:05:12;;;;;;;48.08;18.80;;;;;;;10.39;79.31;100771.98;1674505;84;21084;-59
2021/10/12 02:07:39;;;;;;;52.83;18.42;;;;;;;10.36;79.62;100773.44;1663985;84;21068;-59
2021/10/12 02:10:07;;;;;;;63.17;19.98;;;;;;;10.35;80.04;100772.54;1661254;84;21226;-59
2021/10/12 02:12:34;;;;;;;55.43;18.50;;;;;;;10.38;80.20;100770.23;1661806;84;21529;-59
2021/10/12 02:15:01;;;;;;;43.73;18.07;;;;;;;10.41;80.11;100780.88;1665738;84;21120;-59
2021/10/12 02:17:30;;;;;;;59.03;18.45;;;;;;;10.42;80.36;100774.59;1660093;84;21139;-59
2021/10/12 02:19:57;;;;;;;63.78;17.60;;;;;;;10.46;80.42;100761.03;1665276;84;21059;-59
2021/10/12 02:22:24;;;;;;;72.10;18.87;;;;;;;10.45;80.61;100766.44;1663519;84;21149;-60
2021/10/12 02:24:51;;;;;;;82.22;18.07;;;;;;;10.46;80.88;100765.51;1707402;82;21097;-60
2021/10/12 02:27:18;;;;;;;83.52;18.25;;;;;;;10.48;80.89;100760.97;1706476;82;21076;-54
2021/10/12 02:29:45;;;;;;;69.40;19.57;;;;;;;10.45;81.09;100755.72;1693172;82;21104;-60
2021/10/12 02:32:12;;;;;;;47.27;16.52;;;;;;;10.43;81.07;100749.53;1711713;82;21020;-60
2021/10/12 02:34:39;;;;;;;78.80;19.10;;;;;;;10.41;81.16;100744.25;1715134;81;21543;-60
2021/10/12 02:37:06;;;;;;;51.15;18.37;;;;;;;10.41;81.17;100747.38;1712285;81;21105;-60
2021/10/12 02:39:33;;;;;;;48.10;17.17;;;;;;;10.38;81.20;100740.75;1722894;81;21533;-60
2021/10/12 02:42:00;;;;;;;59.48;18.45;;;;;;;10.37;81.41;100734.98;1720415;81;21472;-60
2021/10/12 02:44:27;;;;;;;57.70;17.27;;;;;;;10.36;81.47;100726.53;1716647;81;21082;-60
2021/10/12 02:46:56;;;;;;;66.85;17.95;;;;;;;10.36;81.41;100726.53;1715182;81;39490;-60
2021/10/12 02:49:23;;;;;;;65.17;18.02;;;;;;;10.37;81.62;100730.96;1714965;81;21042;-54
2021/10/12 02:51:50;;;;;;;46.63;17.17;;;;;;;10.40;81.53;100731.78;1720094;81;21092;-54
2021/10/12 02:54:17;;;;;;;43.15;17.62;;;;;;;10.38;81.68;100734.05;1720126;81;21591;-59
2021/10/12 02:56:44;;;;;;;51.60;17.02;;;;;;;10.38;81.93;100732.23;1717681;81;21064;-59
2021/10/12 02:59:11;;;;;;;44.58;16.82;;;;;;;10.43;81.89;100732.11;1718013;81;21138;-55
2021/10/12 03:01:38;;;;;;;51.55;17.05;;;;;;;10.43;82.19;100725.41;1711214;81;21024;-60
2021/10/12 03:04:07;;;;;;;67.03;17.95;;;;;;;10.48;82.41;100723.44;1719783;81;21066;-61
2021/10/12 03:06:34;;;;;;;53.95;17.57;;;;;;;10.46;82.50;100716.81;1713456;81;21050;-60
2021/10/12 03:09:01;;;;;;;74.00;17.05;;;;;;;10.49;82.89;100719.83;1682294;83;21066;-56
2021/10/12 03:11:29;;;;;;;58.60;16.60;;;;;;;10.48;82.92;100719.90;1690479;83;21133;-54
2021/10/12 03:13:56;;;;;;;59.25;16.73;;;;;;;10.48;83.26;100720.76;1687639;83;21047;-53
2021/10/12 03:16:24;;;;;;;46.65;17.30;;;;;;;10.50;83.37;100713.56;1691848;81;21094;-55
2021/10/12 03:18:52;;;;;;;56.58;17.30;;;;;;;10.50;83.40;100710.00;1676791;83;21646;-55
2021/10/12 03:21:20;;;;;;;64.00;16.27;;;;;;;10.50;83.40;100713.56;1678184;83;21158;-54
2021/10/12 03:23:47;;;;;;;62.90;16.62;;;;;;;10.47;83.40;100709.62;1680769;83;21295;-61
2021/10/12 03:26:14;;;;;;;58.85;16.87;;;;;;;10.43;83.57;100705.31;1645494;84;21632;-54
2021/10/12 03:28:41;;;;;;;70.92;17.45;;;;;;;10.40;83.70;100704.05;1676894;83;21073;-60
2021/10/12 03:31:08;;;;;;;77.72;17.65;;;;;;;10.38;83.88;100700.55;1714173;81;21083;-60
2021/10/12 03:33:36;;;;;;;79.22;18.30;;;;;;;10.34;84.08;100693.55;1716975;81;21092;-55
2021/10/12 03:36:13;;;;;;;45.30;16.10;;;;;;;10.38;84.17;100701.41;1714684;81;21456;-59
2021/10/12 03:38:32;;;;;;;59.23;17.60;;;;;;;10.40;84.09;100704.05;1713406;81;21158;-59
2021/10/12 03:40:59;;;;;;;41.48;15.98;;;;;;;10.39;84.29;100704.98;1721675;81;21178;-60
2021/10/12 03:43:29;;;;;;;46.95;16.23;;;;;;;10.42;84.43;100705.80;1716236;81;21111;-55
2021/10/12 03:45:56;;;;;;;48.63;17.17;;;;;;;10.43;84.49;100699.95;1718174;81;21117;-55
2021/10/12 03:48:23;;;;;;;41.65;15.78;;;;;;;10.47;84.75;100692.20;1713786;81;22011;-55
2021/10/12 03:50:50;;;;;;;56.35;16.95;;;;;;;10.51;84.65;100697.89;1717008;81;21109;-60
2021/10/12 03:53:17;;;;;;;46.30;15.80;;;;;;;10.52;84.75;100693.39;1722299;81;21084;-55
2021/10/12 03:55:44;;;;;;;61.33;16.32;;;;;;;10.55;84.97;100687.47;1715758;81;22085;-55
2021/10/12 03:58:11;;;;;;;56.18;16.70;;;;;;;10.60;84.79;100682.80;1716889;81;21489;-54
2021/10/12 04:00:38;;;;;;;60.48;17.32;;;;;;;10.60;84.58;100685.94;1717627;81;21960;-54
2021/10/12 04:03:05;;;;;;;66.25;17.73;;;;;;;10.59;84.44;100686.42;1710110;81;21046;-54
2021/10/12 04:05:33;;;;;;;64.60;17.02;;;;;;;10.55;84.17;100692.83;1702305;82;21076;-54
2021/10/12 04:08:00;;;;;;;90.17;19.55;;;;;;;10.52;84.02;100687.58;1709187;82;21481;-59
2021/10/12 04:10:27;;;;;;;61.23;16.27;;;;;;;10.52;83.83;100690.27;1705650;82;21073;-59
2021/10/12 04:12:54;;;;;;;63.42;18.90;;;;;;;10.53;83.88;100683.97;1705651;82;21138;-60
2021/10/12 04:15:21;;;;;;;79.55;18.73;;;;;;;10.57;83.66;100680.69;1707402;82;21060;-55
2021/10/12 04:17:48;;;;;;;80.75;19.42;;;;;;;10.55;83.44;100680.77;1702072;82;21081;-56
2021/10/12 04:20:15;;;;;;;59.93;19.15;;;;;;;10.52;83.75;100674.17;1710224;82;21041;-55
2021/10/12 04:22:43;;;;;;;50.80;18.62;;;;;;;10.55;83.68;100674.06;1704932;82;21093;-55
2021/10/12 04:25:09;;;;;;;53.28;19.07;;;;;;;10.55;84.02;100673.17;1702105;82;21123;-55
2021/10/12 04:27:37;;;;;;;50.63;17.67;;;;;;;10.59;84.27;100678.83;1709532;82;21132;-61
2021/10/12 04:30:06;;;;;;;40.17;17.45;;;;;;;10.57;84.30;100672.20;1707007;82;20987;-60
2021/10/12 04:32:33;;;;;;;44.25;16.55;;;;;;;10.53;84.37;100669.22;1699875;82;21085;-60
2021/10/12 04:35:00;;;;;;;48.02;18.00;;;;;;;10.50;84.91;100666.66;1703762;83;21496;-61
2021/10/12 04:37:27;;;;;;;38.38;17.17;;;;;;;10.53;85.24;100667.88;1708196;82;22183;-59
2021/10/12 04:39:54;;;;;;;33.90;16.82;;;;;;;10.56;85.55;100670.45;1703469;82;21536;-60
2021/10/12 04:42:21;;;;;;;48.73;17.50;;;;;;;10.59;86.11;100661.40;1710682;82;21068;-60
2021/10/12 04:44:50;;;;;;;39.33;16.97;;;;;;;10.64;86.04;100669.28;1706602;82;21036;-60
2021/10/12 04:47:19;;;;;;;43.83;17.02;;;;;;;10.67;86.10;100663.80;1702470;82;21206;-55
2021/10/12 04:49:47;;;;;;;49.35;17.20;;;;;;;10.73;86.26;100668.96;1697925;82;21634;-60
2021/10/12 04:52:14;;;;;;;44.85;17.95;;;;;;;10.78;86.28;100676.81;1705464;82;21053;-56
2021/10/12 04:54:42;;;;;;;34.18;16.32;;;;;;;10.82;86.50;100672.63;1700991;82;21547;-54
2021/10/12 04:57:08;;;;;;;50.25;17.12;;;;;;;10.93;86.38;100686.09;1707741;82;21482;-60
2021/10/12 04:59:36;;;;;;;46.68;16.27;;;;;;;10.95;86.33;100670.84;1703002;82;21115;-55
2021/10/12 05:02:03;;;;;;;43.28;16.02;;;;;;;10.97;86.62;100667.15;1707864;82;21132;-55
2021/10/12 05:04:30;;;;;;;34.80;15.88;;;;;;;11.00;86.66;100671.53;1713587;81;21069;-55
2021/10/12 05:07:01;;;;;;;39.27;16.65;;;;;;;11.00;86.71;100664.34;1713531;81;21053;-57
2021/10/12 05:09:28;;;;;;;36.20;16.40;;;;;;;11.02;86.67;100662.96;1687670;83;21176;-55
2021/10/12 05:11:55;;;;;;;34.58;16.62;;;;;;;11.00;86.29;100661.66;1690851;83;21048;-55
2021/10/12 05:14:22;;;;;;;36.63;17.07;;;;;;;10.93;86.17;100657.47;1690629;83;22169;-55
2021/10/12 05:16:51;;;;;;;38.75;16.45;;;;;;;10.85;86.21;100649.71;1652388;85;21087;-55
2021/10/12 05:19:19;;;;;;;35.70;17.00;;;;;;;10.81;86.70;100657.47;1694448;83;21061;-55
2021/10/12 05:21:46;;;;;;;35.08;17.23;;;;;;;10.79;86.96;100662.02;1691838;83;21121;-55
2021/10/12 05:24:13;;;;;;;46.83;17.85;;;;;;;10.81;86.97;100666.86;1692593;83;21347;-55
2021/10/12 05:26:41;;;;;;;53.30;17.17;;;;;;;10.82;86.80;100673.97;1653478;85;21850;-55
2021/10/12 05:29:12;;;;;;;42.73;16.25;;;;;;;10.85;86.83;100670.31;1687103;83;21462;-55
2021/10/12 05:31:40;;;;;;;40.20;16.48;;;;;;;10.91;86.62;100674.55;1659210;84;21581;-60
2021/10/12 05:34:10;;;;;;;40.83;16.65;;;;;;;10.88;86.77;100672.88;1661961;84;21056;-55
2021/10/12 05:36:37;;;;;;;41.80;17.20;;;;;;;10.87;87.07;100676.48;1688948;83;21160;-60
2021/10/12 05:39:04;;;;;;;30.57;16.42;;;;;;;10.91;87.38;100670.52;1678080;83;21135;-55
2021/10/12 05:41:32;;;;;;;39.33;15.65;;;;;;;10.98;87.62;100669.38;1680402;83;21524;-61
2021/10/12 05:44:00;;;;;;;40.50;16.37;;;;;;;11.01;87.67;100667.44;1677632;83;21144;-56
2021/10/12 05:46:30;;;;;;;41.75;17.20;;;;;;;11.05;87.96;100673.56;1674212;83;21084;-56
2021/10/12 05:48:58;;;;;;;41.10;18.55;;;;;;;11.12;87.97;100676.41;1681084;83;21093;-55
2021/10/12 05:51:26;;;;;;;45.03;17.12;;;;;;;11.15;88.04;100678.11;1653721;85;21181;-61
2021/10/12 05:53:55;;;;;;;40.85;16.50;;;;;;;11.22;88.28;100673.39;1684557;83;21101;-60
2021/10/12 05:56:40;;;;;;;34.08;16.10;;;;;;;11.27;88.08;100674.08;1672421;83;21059;-55
2021/10/12 05:58:57;;;;;;;36.68;16.45;;;;;;;11.32;88.22;100680.13;1670876;83;21529;-61
2021/10/12 06:01:24;;;;;;;37.73;17.30;;;;;;;11.40;88.26;100685.20;1672848;83;21149;-59
2021/10/12 06:03:51;;;;;;;38.17;17.30;;;;;;;11.43;88.37;100683.28;1670967;83;21055;-56
2021/10/12 06:06:18;;;;;;;36.45;17.57;;;;;;;11.46;88.83;100685.84;1670111;84;21235;-61
2021/10/12 06:08:45;;;;;;;45.03;17.98;;;;;;;11.52;89.08;100697.27;1679995;83;21671;-62
2021/10/12 06:11:13;;;;;;;41.28;18.27;;;;;;;11.57;89.20;100692.58;1681833;83;21136;-61
2021/10/12 06:13:41;;;;;;;36.00;17.15;;;;;;;11.60;89.21;100688.42;1643000;85;21632;-55
2021/10/12 06:16:10;;;;;;;35.15;17.42;;;;;;;11.64;89.27;100691.87;1641481;85;21625;-61
2021/10/12 06:18:38;;;;;;;36.58;18.20;;;;;;;11.67;89.43;100693.97;1690246;83;21506;-60
2021/10/12 06:21:05;;;;;;;36.73;16.37;;;;;;;11.66;89.30;100685.52;1647671;84;21104;-61
2021/10/12 06:23:33;;;;;;;35.92;17.02;;;;;;;11.67;89.68;100691.29;1655574;84;21112;-61
2021/10/12 06:26:00;;;;;;;38.17;17.32;;;;;;;11.67;89.82;100681.89;1700678;82;21101;-60
2021/10/12 06:28:28;;;;;;;35.28;17.52;;;;;;;11.65;89.70;100678.39;1696247;82;21473;-61
2021/10/12 06:30:58;;;;;;;41.00;17.57;;;;;;;11.59;90.02;100673.25;1699670;82;21628;-62
2021/10/12 06:33:25;;;;;;;36.80;17.85;;;;;;;11.57;90.15;100672.44;1703953;82;21103;-60
2021/10/12 06:35:52;;;;;;;35.28;17.62;;;;;;;11.53;90.12;100667.69;1698927;82;21057;-62
2021/10/12 06:38:20;;;;;;;42.85;18.80;;;;;;;11.49;90.46;100665.17;1693318;82;21142;-60
2021/10/12 06:40:47;;;;;;;32.45;18.45;;;;;;;11.43;90.50;100660.47;1700742;82;21227;-60
2021/10/12 06:43:15;;;;;;;39.00;20.27;;;;;;;11.37;90.68;100659.34;1699998;82;21100;-61
2021/10/12 06:45:42;;;;;;;37.10;20.32;;;;;;;11.32;91.12;100662.23;1695306;82;21068;-60
2021/10/12 06:48:09;;;;;;;43.63;19.85;;;;;;;11.31;91.49;100652.89;1694856;82;21087;-60
2021/10/12 06:50:37;;;;;;;42.15;19.48;;;;;;;11.31;92.06;100646.17;1699966;82;21568;-61
2021/10/12 06:53:04;;;;;;;29.27;17.10;;;;;;;11.38;92.62;100646.33;1697128;81;21104;-61
2021/10/12 06:55:32;;;;;;;38.05;18.15;;;;;;;11.46;93.27;100648.26;1686134;83;22398;-62
2021/10/12 06:57:59;;;;;;;33.45;17.85;;;;;;;11.56;93.53;100647.88;1688577;82;21190;-60
2021/10/12 07:00:27;;;;;;;29.12;15.70;;;;;;;11.68;93.84;100642.01;1706180;81;21163;-59
2021/10/12 07:02:54;;;;;;;32.45;17.12;;;;;;;11.81;93.92;100645.05;1695523;82;21266;-61
2021/10/12 07:05:21;;;;;;;34.03;16.80;;;;;;;11.92;93.89;100647.29;1708038;81;21167;-59
2021/10/12 07:07:49;;;;;;;37.35;16.73;;;;;;;12.00;93.54;100657.23;1723769;81;21775;-61
2021/10/12 07:10:16;;;;;;;39.53;16.62;;;;;;;12.06;93.23;100653.94;1724107;80;21321;-60
2021/10/12 07:12:43;;;;;;;31.82;15.58;;;;;;;12.10;92.84;100651.52;1717071;81;21675;-60
2021/10/12 07:15:12;;;;;;;30.90;17.02;;;;;;;12.09;92.72;100653.80;1722080;81;21063;-60
2021/10/12 07:17:41;;;;;;;32.60;17.00;;;;;;;12.16;92.94;100655.27;1725185;81;21615;-60
2021/10/12 07:20:09;;;;;;;37.42;17.15;;;;;;;12.27;92.74;100654.80;1724920;81;21112;-59
2021/10/12 07:22:36;;;;;;;37.30;15.93;;;;;;;12.32;92.64;100659.05;1726145;81;21073;-62
2021/10/12 07:25:06;;;;;;;43.78;17.87;;;;;;;12.43;92.65;100660.37;1724345;81;21095;-60
2021/10/12 07:27:35;;;;;;;35.30;17.55;;;;;;;12.50;92.10;100651.11;1720007;81;21241;-60
2021/10/12 07:30:02;;;;;;;42.17;17.87;;;;;;;12.57;92.03;100655.27;1720095;81;21112;-63
2021/10/12 07:32:30;;;;;;;42.60;18.90;;;;;;;12.65;91.60;100656.72;1723858;81;21147;-61
2021/10/12 07:34:57;;;;;;;41.33;16.73;;;;;;;12.71;91.54;100652.41;1719502;81;21135;-61
2021/10/12 07:37:24;;;;;;;33.98;15.70;;;;;;;12.77;91.26;100649.45;1723467;81;21122;-61
2021/10/12 07:39:53;;;;;;;30.02;15.43;;;;;;;12.78;91.06;100649.85;1724129;81;21504;-61
2021/10/12 07:42:20;;;;;;;34.50;15.20;;;;;;;12.80;91.12;100657.37;1718923;81;21750;-61
2021/10/12 07:44:47;;;;;;;30.85;15.72;;;;;;;12.83;91.16;100653.20;1718680;81;21095;-60
2021/10/12 07:47:14;;;;;;;30.08;16.37;;;;;;;12.85;91.01;100650.45;1723225;81;21540;-60
2021/10/12 07:49:41;;;;;;;34.80;16.90;;;;;;;12.86;91.09;100644.98;1719439;81;22081;-60
2021/10/12 07:52:09;;;;;;;35.08;16.82;;;;;;;12.93;91.07;100647.37;1720478;81;21083;-62
2021/10/12 07:54:45;;;;;;;32.30;16.45;;;;;;;13.00;91.16;100650.20;1716681;81;21593;-61
2021/10/12 07:57:06;;;;;;;26.62;15.23;;;;;;;13.09;90.95;100656.48;1724054;81;21444;-61
2021/10/12 07:59:33;;;;;;;27.67;14.50;;;;;;;13.18;90.47;100652.03;1730824;81;21710;-61
2021/10/12 08:02:00;;;;;;;33.63;15.60;;;;;;;13.23;90.09;100648.25;1724973;81;21616;-62
2021/10/12 08:04:27;;;;;;;31.87;15.90;;;;;;;13.25;89.54;100640.97;1726288;81;21174;-61
2021/10/12 08:06:54;;;;;;;27.37;14.15;;;;;;;13.28;89.40;100647.55;1722288;81;21514;-61
2021/10/12 08:09:22;;;;;;;28.98;15.18;;;;;;;13.34;89.42;100629.73;1718827;80;21654;-61
2021/10/12 08:11:49;;;;;;;31.68;15.18;;;;;;;13.44;88.90;100637.81;1719540;80;21144;-61
2021/10/12 08:14:20;;;;;;;28.57;13.50;;;;;;;13.50;88.33;100630.37;1715746;81;22014;-62
2021/10/12 08:16:48;;;;;;;28.15;15.53;;;;;;;13.55;88.02;100631.02;1711285;81;21545;-60
2021/10/12 08:19:15;;;;;;;29.35;14.03;;;;;;;13.60;87.78;100633.89;1714805;81;21514;-62
2021/10/12 08:21:42;;;;;;;30.48;14.15;;;;;;;13.73;87.58;100638.19;1717920;81;21049;-61
2021/10/12 08:24:11;;;;;;;29.27;14.75;;;;;;;13.86;86.92;100614.67;1725819;81;21527;-62
2021/10/12 08:26:39;;;;;;;29.48;15.78;;;;;;;14.00;86.00;100614.81;1725641;80;21115;-60
2021/10/12 08:29:07;;;;;;;27.60;13.83;;;;;;;14.14;85.87;100614.59;1720474;81;21063;-62
2021/10/12 08:31:34;;;;;;;27.93;13.80;;;;;;;14.30;85.27;100608.80;1725990;81;21166;-61
2021/10/12 08:34:01;;;;;;;23.07;13.00;;;;;;;14.40;83.68;100603.78;1716574;81;22024;-61
2021/10/12 08:36:28;;;;;;;23.05;13.43;;;;;;;14.37;83.53;100599.91;1718187;81;22311;-62
2021/10/12 08:38:56;;;;;;;21.15;12.93;;;;;;;14.38;83.46;100598.06;1637493;85;21107;-61
2021/10/12 08:41:35;;;;;;;23.25;12.95;;;;;;;14.37;82.75;100597.67;1660011;84;21730;-61
2021/10/12 08:43:58;;;;;;;23.65;12.53;;;;;;;14.25;82.88;100590.61;1657018;84;21950;-61
2021/10/12 08:46:26;;;;;;;23.73;12.10;;;;;;;14.22;83.61;100596.17;1661739;84;21079;-56
2021/10/12 08:49:00;;;;;;;22.62;12.35;;;;;;;14.23;83.40;100588.97;1658299;84;21081;-55
2021/10/12 08:51:27;;;;;;;21.40;12.90;;;;;;;14.24;83.46;100586.17;1668491;83;21617;-62
2021/10/12 08:53:54;;;;;;;20.20;12.63;;;;;;;14.35;83.67;100583.40;1654692;84;22660;-61
2021/10/12 08:56:21;;;;;;;20.35;12.18;;;;;;;14.46;83.01;100576.94;1657361;83;21163;-55
2021/10/12 08:58:48;;;;;;;24.43;12.45;;;;;;;14.45;82.74;100570.69;1666048;84;21795;-61
2021/10/12 09:01:17;;;;;;;22.00;12.37;;;;;;;14.45;82.48;100575.19;1657933;84;21162;-56
2021/10/12 09:06:33;;;;;;;20.88;12.05;;;;;;;14.39;82.85;100564.74;1666076;83;21122;-57
2021/10/12 09:09:04;;;;;;;24.43;11.80;;;;;;;14.47;82.96;100574.62;1648704;85;21095;-54
2021/10/12 09:11:34;;;;;;;22.75;12.30;;;;;;;14.49;82.68;100584.00;1656856;83;21550;-56
2021/10/12 09:14:11;;;;;;;27.32;12.15;;;;;;;14.49;82.66;100568.70;1682455;83;21207;-56
2021/10/12 09:16:40;;;;;;;25.73;13.30;;;;;;;14.50;82.69;100578.53;1665771;84;21135;-61
2021/10/12 09:19:13;;;;;;;25.00;12.30;;;;;;;14.46;82.29;100567.49;1670805;84;21500;-60
2021/10/12 09:21:44;;;;;;;22.82;12.18;;;;;;;14.30;83.00;100583.17;1650683;83;21915;-61
2021/10/12 09:24:16;;;;;;;21.80;11.80;;;;;;;14.21;83.21;100563.42;1687552;83;21100;-61
2021/10/12 09:26:50;;;;;;;27.50;12.75;;;;;;;14.13;83.64;100564.32;1662467;84;21093;-61
2021/10/12 09:29:31;;;;;;;34.15;13.25;;;;;;;14.05;84.11;100555.28;1671869;84;21123;-56
2021/10/12 09:31:57;;;;;;;20.90;12.35;;;;;;;14.02;84.40;100548.71;1675649;83;21093;-55
2021/10/12 09:34:25;;;;;;;29.25;14.15;;;;;;;14.04;84.89;100558.47;1687355;82;21522;-55
2021/10/12 09:36:52;;;;;;;31.33;14.63;;;;;;;14.12;84.54;100546.41;1680588;83;21109;-55
2021/10/12 09:39:35;;;;;;;32.17;13.83;;;;;;;14.16;83.80;100539.89;1686239;83;21132;-55
2021/10/12 09:42:04;;;;;;;27.13;15.23;;;;;;;14.13;83.47;100554.39;1671307;83;20949;-56
2021/10/12 09:44:33;;;;;;;27.07;14.87;;;;;;;13.99;82.92;100525.97;1666196;84;21095;-57
2021/10/12 09:47:14;;;;;;;29.63;13.55;;;;;;;13.84;83.67;100556.80;1669935;84;22113;-56
2021/10/12 09:49:43;;;;;;;30.68;14.50;;;;;;;13.73;83.98;100530.41;1726705;81;21102;-55
2021/10/12 09:52:17;;;;;;;26.80;14.13;;;;;;;13.69;84.34;100531.53;1703176;81;21654;-55
2021/10/12 09:54:48;;;;;;;26.60;14.50;;;;;;;13.61;84.50;100541.84;1716696;81;21093;-61
2021/10/12 09:57:18;;;;;;;26.60;13.80;;;;;;;13.60;84.68;100530.67;1718903;81;21042;-60
2021/10/12 09:59:46;;;;;;;30.08;14.83;;;;;;;13.59;84.69;100538.33;1718187;81;21851;-60
2021/10/12 10:02:20;;;;;;;34.78;15.68;;;;;;;13.54;84.29;100537.69;1720101;81;21071;-61
2021/10/12 10:04:49;;;;;;;29.42;15.10;;;;;;;13.50;85.03;100533.42;1717221;81;21103;-62
2021/10/12 10:07:37;;;;;;;24.23;14.10;;;;;;;13.54;85.05;100526.92;1701251;82;21446;-62
2021/10/12 10:10:08;;;;;;;30.17;16.27;;;;;;;13.55;84.71;100523.27;1626057;86;21196;-61
2021/10/12 10:12:35;;;;;;;28.80;14.95;;;;;;;13.49;84.74;100508.78;1631148;85;21095;-61
2021/10/12 10:15:03;;;;;;;29.63;15.38;;;;;;;13.46;84.47;100510.69;1655943;85;21069;-61
2021/10/12 10:17:31;;;;;;;33.15;16.65;;;;;;;13.38;84.47;100516.92;1660625;85;21079;-61
2021/10/12 10:20:05;;;;;;;33.90;15.50;;;;;;;13.30;84.61;100519.10;1654317;85;21089;-62
2021/10/12 10:22:44;;;;;;;29.48;15.55;;;;;;;13.20;84.93;100507.92;1663039;84;21089;-62
2021/10/12 10:25:34;;;;;;;30.48;16.15;;;;;;;13.18;85.54;100517.90;1655015;85;21331;-61
2021/10/12 10:28:23;;;;;;;30.72;16.30;;;;;;;13.21;85.62;100508.31;1655039;85;21138;-59
2021/10/12 10:30:59;;;;;;;33.80;14.98;;;;;;;13.26;85.55;100509.44;1652260;85;21167;-61
2021/10/12 10:33:35;;;;;;;27.40;15.05;;;;;;;13.32;85.70;100505.09;1641623;85;21053;-60
2021/10/12 10:36:10;;;;;;;27.82;15.83;;;;;;;13.41;85.16;100491.17;1661329;84;21158;-62
2021/10/12 10:38:45;;;;;;;29.45;15.08;;;;;;;13.43;85.11;100471.80;1636846;85;22121;-61
2021/10/12 10:41:19;;;;;;;25.23;14.80;;;;;;;13.50;85.17;100471.02;1645738;85;21069;-60
2021/10/12 10:43:54;;;;;;;27.22;14.78;;;;;;;13.66;85.12;100476.93;1657799;84;21848;-60
2021/10/12 10:46:36;;;;;;;24.37;14.38;;;;;;;13.79;84.32;100469.06;1656248;84;21105;-61
2021/10/12 10:49:20;;;;;;;26.80;14.87;;;;;;;13.88;84.27;100469.94;1655138;84;21456;-60
2021/10/12 10:51:56;;;;;;;26.93;14.73;;;;;;;14.00;83.52;100466.58;1639579;85;21179;-60
2021/10/12 10:54:58;;;;;;;28.02;13.88;;;;;;;14.02;82.75;100463.31;1664080;84;21064;-62
2021/10/12 10:57:30;;;;;;;22.05;13.88;;;;;;;13.95;82.52;100452.97;1675782;84;21073;-61
2021/10/12 11:00:19;;;;;;;29.05;13.72;;;;;;;13.96;82.98;100451.53;1697863;83;22490;-56
2021/10/12 11:02:47;;;;;;;26.62;13.35;;;;;;;14.04;83.09;100453.81;1683075;83;21072;-56
2021/10/12 11:05:41;;;;;;;27.02;13.83;;;;;;;14.18;82.93;100461.14;1675227;83;21424;-56
2021/10/12 11:08:18;;;;;;;24.18;13.53;;;;;;;14.30;82.38;100448.34;1705214;81;21598;-55
2021/10/12 11:10:58;;;;;;;20.25;12.63;;;;;;;14.40;82.30;100441.08;1727886;81;21678;-55
2021/10/12 11:13:43;;;;;;;24.18;14.47;;;;;;;14.46;81.51;100444.77;1730931;81;21045;-55
2021/10/12 11:16:16;;;;;;;21.70;11.78;;;;;;;14.42;81.30;100440.50;1729186;79;21237;-55
2021/10/12 11:18:47;;;;;;;27.93;12.33;;;;;;;14.40;81.52;100441.08;1676693;84;21311;-54
2021/10/12 11:21:16;;;;;;;27.32;13.20;;;;;;;14.40;81.27;100420.84;1699155;82;20974;-56
2021/10/12 11:23:51;;;;;;;24.85;11.83;;;;;;;14.36;81.34;100423.33;1688241;83;21090;-55
2021/10/12 11:26:20;;;;;;;22.15;13.10;;;;;;;14.33;81.37;100423.89;1694280;83;21076;-61